sensor_id;sensor_type;location;lat;lon;timestamp;P1;durP1;ratioP1;P2;durP2;ratioP2
64560;SDS011;50960;46.838;16.838;2023-11-21T00:52:16;29.02;;;25.67;;
64560;SDS011;50960;46.838;16.838;2023-11-21T00:54:42;26.98;;;24.17;;
64560;SDS011;50960;46.838;16.838;2023-11-21T00:57:08;28.25;;;24.63;;
64560;SDS011;50960;46.838;16.838;2023-11-21T00:59:37;27.88;;;25.00;;
64560;SDS011;50960;46.838;16.838;2023-11-21T01:02:03;28.98;;;25.85;;
64560;SDS011;50960;46.838;16.838;2023-11-21T01:04:30;27.88;;;24.85;;
64560;SDS011;50960;46.838;16.838;2023-11-21T01:06:57;27.92;;;25.02;;
64560;SDS011;50960;46.838;16.838;2023-11-21T01:09:24;27.83;;;24.88;;
64560;SDS011;50960;46.838;16.838;2023-11-21T01:11:51;32.05;;;26.40;;
64560;SDS011;50960;46.838;16.838;2023-11-21T01:14:17;32.35;;;26.75;;
64560;SDS011;50960;46.838;16.838;2023-11-21T01:16:44;32.25;;;26.73;;
64560;SDS011;50960;46.838;16.838;2023-11-21T01:19:11;32.83;;;27.42;;
64560;SDS011;50960;46.838;16.838;2023-11-21T01:21:37;32.80;;;27.85;;
64560;SDS011;50960;46.838;16.838;2023-11-21T01:24:03;33.50;;;28.52;;
64560;SDS011;50960;46.838;16.838;2023-11-21T01:30:07;33.38;;;26.52;;
64560;SDS011;50960;46.838;16.838;2023-11-21T01:32:37;30.58;;;27.35;;
64560;SDS011;50960;46.838;16.838;2023-11-21T01:35:03;30.13;;;26.40;;
64560;SDS011;50960;46.838;16.838;2023-11-21T01:37:32;32.15;;;26.58;;
64560;SDS011;50960;46.838;16.838;2023-11-21T01:39:58;27.77;;;23.90;;
64560;SDS011;50960;46.838;16.838;2023-11-21T01:42:26;29.98;;;25.98;;
64560;SDS011;50960;46.838;16.838;2023-11-21T01:44:54;27.35;;;24.40;;
64560;SDS011;50960;46.838;16.838;2023-11-21T01:47:21;31.35;;;26.27;;
64560;SDS011;50960;46.838;16.838;2023-11-21T01:49:47;27.80;;;24.77;;
64560;SDS011;50960;46.838;16.838;2023-11-21T01:52:14;28.48;;;25.05;;
64560;SDS011;50960;46.838;16.838;2023-11-21T01:54:40;28.58;;;25.55;;
64560;SDS011;50960;46.838;16.838;2023-11-21T01:57:08;28.10;;;25.08;;
64560;SDS011;50960;46.838;16.838;2023-11-21T01:59:35;30.83;;;25.80;;
64560;SDS011;50960;46.838;16.838;2023-11-21T02:02:06;27.88;;;24.75;;
64560;SDS011;50960;46.838;16.838;2023-11-21T02:04:32;26.00;;;23.20;;
64560;SDS011;50960;46.838;16.838;2023-11-21T02:06:59;26.38;;;23.58;;
64560;SDS011;50960;46.838;16.838;2023-11-21T02:09:27;26.73;;;23.73;;
64560;SDS011;50960;46.838;16.838;2023-11-21T02:11:55;28.02;;;25.00;;
64560;SDS011;50960;46.838;16.838;2023-11-21T02:14:22;27.05;;;24.02;;
64560;SDS011;50960;46.838;16.838;2023-11-21T02:16:51;27.33;;;24.35;;
64560;SDS011;50960;46.838;16.838;2023-11-21T02:19:18;26.63;;;23.77;;
64560;SDS011;50960;46.838;16.838;2023-11-21T02:21:51;26.50;;;23.67;;
64560;SDS011;50960;46.838;16.838;2023-11-21T02:24:19;26.83;;;23.85;;
64560;SDS011;50960;46.838;16.838;2023-11-21T02:26:47;26.80;;;23.85;;
64560;SDS011;50960;46.838;16.838;2023-11-21T02:29:17;26.95;;;23.73;;
64560;SDS011;50960;46.838;16.838;2023-11-21T02:31:47;26.90;;;24.10;;
64560;SDS011;50960;46.838;16.838;2023-11-21T02:34:17;27.27;;;24.05;;
64560;SDS011;50960;46.838;16.838;2023-11-21T02:36:44;26.35;;;23.75;;
64560;SDS011;50960;46.838;16.838;2023-11-21T02:42:33;26.60;;;23.73;;
64560;SDS011;50960;46.838;16.838;2023-11-21T02:44:59;26.15;;;23.38;;
64560;SDS011;50960;46.838;16.838;2023-11-21T02:47:26;25.63;;;22.83;;
64560;SDS011;50960;46.838;16.838;2023-11-21T02:49:52;25.52;;;22.55;;
64560;SDS011;50960;46.838;16.838;2023-11-21T02:52:18;23.15;;;20.75;;
64560;SDS011;50960;46.838;16.838;2023-11-21T02:54:44;24.40;;;21.63;;
64560;SDS011;50960;46.838;16.838;2023-11-21T02:57:11;23.50;;;21.00;;
64560;SDS011;50960;46.838;16.838;2023-11-21T02:59:37;25.52;;;22.10;;
64560;SDS011;50960;46.838;16.838;2023-11-21T03:02:03;24.60;;;22.00;;
64560;SDS011;50960;46.838;16.838;2023-11-21T03:04:29;25.40;;;22.70;;
64560;SDS011;50960;46.838;16.838;2023-11-21T03:06:58;24.20;;;21.63;;
64560;SDS011;50960;46.838;16.838;2023-11-21T03:09:24;25.30;;;22.60;;
64560;SDS011;50960;46.838;16.838;2023-11-21T03:11:53;24.48;;;22.02;;
64560;SDS011;50960;46.838;16.838;2023-11-21T03:14:19;24.70;;;21.60;;
64560;SDS011;50960;46.838;16.838;2023-11-21T03:16:45;25.67;;;22.23;;
64560;SDS011;50960;46.838;16.838;2023-11-21T03:19:12;24.40;;;21.75;;
64560;SDS011;50960;46.838;16.838;2023-11-21T03:21:39;25.80;;;23.02;;
64560;SDS011;50960;46.838;16.838;2023-11-21T03:24:05;26.02;;;23.23;;
64560;SDS011;50960;46.838;16.838;2023-11-21T03:26:33;26.10;;;22.23;;
64560;SDS011;50960;46.838;16.838;2023-11-21T03:28:59;23.95;;;21.55;;
64560;SDS011;50960;46.838;16.838;2023-11-21T03:31:25;23.67;;;21.17;;
64560;SDS011;50960;46.838;16.838;2023-11-21T03:33:52;23.85;;;21.00;;
64560;SDS011;50960;46.838;16.838;2023-11-21T03:36:19;24.00;;;21.60;;
64560;SDS011;50960;46.838;16.838;2023-11-21T03:38:47;24.67;;;22.15;;
64560;SDS011;50960;46.838;16.838;2023-11-21T03:41:14;23.70;;;21.30;;
64560;SDS011;50960;46.838;16.838;2023-11-21T03:43:40;23.05;;;20.67;;
64560;SDS011;50960;46.838;16.838;2023-11-21T03:46:06;23.25;;;20.85;;
64560;SDS011;50960;46.838;16.838;2023-11-21T03:48:32;24.38;;;21.77;;
64560;SDS011;50960;46.838;16.838;2023-11-21T03:50:59;24.08;;;21.60;;
64560;SDS011;50960;46.838;16.838;2023-11-21T03:53:25;23.55;;;21.20;;
64560;SDS011;50960;46.838;16.838;2023-11-21T03:55:51;22.48;;;20.05;;
64560;SDS011;50960;46.838;16.838;2023-11-21T03:58:17;25.05;;;22.45;;
64560;SDS011;50960;46.838;16.838;2023-11-21T04:00:44;22.73;;;20.52;;
64560;SDS011;50960;46.838;16.838;2023-11-21T04:03:10;24.00;;;21.40;;
64560;SDS011;50960;46.838;16.838;2023-11-21T04:05:39;22.40;;;20.20;;
64560;SDS011;50960;46.838;16.838;2023-11-21T04:08:05;23.90;;;21.45;;
64560;SDS011;50960;46.838;16.838;2023-11-21T04:10:32;23.70;;;21.30;;
64560;SDS011;50960;46.838;16.838;2023-11-21T04:12:58;25.35;;;21.15;;
64560;SDS011;50960;46.838;16.838;2023-11-21T04:15:25;25.23;;;22.70;;
64560;SDS011;50960;46.838;16.838;2023-11-21T04:17:52;23.85;;;20.60;;
64560;SDS011;50960;46.838;16.838;2023-11-21T04:20:18;22.90;;;20.55;;
64560;SDS011;50960;46.838;16.838;2023-11-21T04:22:44;22.27;;;20.08;;
64560;SDS011;50960;46.838;16.838;2023-11-21T04:25:11;24.13;;;21.58;;
64560;SDS011;50960;46.838;16.838;2023-11-21T04:31:02;22.85;;;20.55;;
64560;SDS011;50960;46.838;16.838;2023-11-21T04:33:28;23.95;;;21.55;;
64560;SDS011;50960;46.838;16.838;2023-11-21T04:35:54;24.52;;;22.02;;
64560;SDS011;50960;46.838;16.838;2023-11-21T04:38:21;21.10;;;19.02;;
64560;SDS011;50960;46.838;16.838;2023-11-21T04:40:47;17.33;;;15.55;;
64560;SDS011;50960;46.838;16.838;2023-11-21T04:43:13;14.45;;;12.95;;
64560;SDS011;50960;46.838;16.838;2023-11-21T04:45:39;11.45;;;10.35;;
64560;SDS011;50960;46.838;16.838;2023-11-21T04:48:07;14.02;;;12.15;;
64560;SDS011;50960;46.838;16.838;2023-11-21T04:50:34;18.73;;;16.27;;
64560;SDS011;50960;46.838;16.838;2023-11-21T04:53:00;14.55;;;13.15;;
64560;SDS011;50960;46.838;16.838;2023-11-21T04:55:27;16.48;;;14.82;;
64560;SDS011;50960;46.838;16.838;2023-11-21T04:57:53;17.02;;;15.32;;
64560;SDS011;50960;46.838;16.838;2023-11-21T05:00:20;15.43;;;13.82;;
64560;SDS011;50960;46.838;16.838;2023-11-21T05:02:47;15.18;;;13.57;;
64560;SDS011;50960;46.838;16.838;2023-11-21T05:05:13;16.63;;;15.00;;
64560;SDS011;50960;46.838;16.838;2023-11-21T05:07:40;19.23;;;17.42;;
64560;SDS011;50960;46.838;16.838;2023-11-21T05:10:07;19.00;;;17.20;;
64560;SDS011;50960;46.838;16.838;2023-11-21T05:12:37;18.83;;;16.60;;
64560;SDS011;50960;46.838;16.838;2023-11-21T05:15:04;17.48;;;15.68;;
64560;SDS011;50960;46.838;16.838;2023-11-21T05:17:35;17.13;;;15.45;;
64560;SDS011;50960;46.838;16.838;2023-11-21T05:20:08;16.38;;;14.68;;
64560;SDS011;50960;46.838;16.838;2023-11-21T05:22:36;12.77;;;11.52;;
64560;SDS011;50960;46.838;16.838;2023-11-21T05:25:03;12.93;;;11.52;;
64560;SDS011;50960;46.838;16.838;2023-11-21T05:27:31;18.58;;;16.58;;
64560;SDS011;50960;46.838;16.838;2023-11-21T05:29:57;13.88;;;12.32;;
64560;SDS011;50960;46.838;16.838;2023-11-21T05:32:24;14.25;;;11.93;;
64560;SDS011;50960;46.838;16.838;2023-11-21T05:34:51;12.55;;;11.30;;
64560;SDS011;50960;46.838;16.838;2023-11-21T05:37:18;12.55;;;10.85;;
64560;SDS011;50960;46.838;16.838;2023-11-21T05:39:44;14.70;;;12.30;;
64560;SDS011;50960;46.838;16.838;2023-11-21T05:42:10;15.75;;;12.40;;
64560;SDS011;50960;46.838;16.838;2023-11-21T05:44:37;14.30;;;11.93;;
64560;SDS011;50960;46.838;16.838;2023-11-21T05:47:06;13.48;;;11.60;;
64560;SDS011;50960;46.838;16.838;2023-11-21T05:49:33;11.80;;;10.45;;
64560;SDS011;50960;46.838;16.838;2023-11-21T05:51:59;14.13;;;11.80;;
64560;SDS011;50960;46.838;16.838;2023-11-21T05:54:26;11.38;;;10.20;;
64560;SDS011;50960;46.838;16.838;2023-11-21T05:56:52;11.20;;;10.10;;
64560;SDS011;50960;46.838;16.838;2023-11-21T05:59:18;10.95;;;9.88;;
64560;SDS011;50960;46.838;16.838;2023-11-21T06:01:46;11.82;;;10.57;;
64560;SDS011;50960;46.838;16.838;2023-11-21T06:04:13;12.23;;;10.48;;
64560;SDS011;50960;46.838;16.838;2023-11-21T06:06:41;11.93;;;10.50;;
64560;SDS011;50960;46.838;16.838;2023-11-21T06:09:07;13.65;;;12.27;;
64560;SDS011;50960;46.838;16.838;2023-11-21T06:11:37;16.20;;;14.50;;
64560;SDS011;50960;46.838;16.838;2023-11-21T06:14:03;17.77;;;15.90;;
64560;SDS011;50960;46.838;16.838;2023-11-21T06:16:31;19.88;;;17.90;;
64560;SDS011;50960;46.838;16.838;2023-11-21T06:18:57;21.00;;;18.65;;
64560;SDS011;50960;46.838;16.838;2023-11-21T06:21:24;20.17;;;18.08;;
64560;SDS011;50960;46.838;16.838;2023-11-21T06:23:50;20.90;;;18.52;;
64560;SDS011;50960;46.838;16.838;2023-11-21T06:26:18;20.90;;;18.65;;
64560;SDS011;50960;46.838;16.838;2023-11-21T06:28:46;20.00;;;17.88;;
64560;SDS011;50960;46.838;16.838;2023-11-21T06:31:12;21.15;;;18.00;;
64560;SDS011;50960;46.838;16.838;2023-11-21T06:33:39;18.08;;;16.30;;
64560;SDS011;50960;46.838;16.838;2023-11-21T06:36:06;20.85;;;17.65;;
64560;SDS011;50960;46.838;16.838;2023-11-21T06:38:33;20.38;;;18.17;;
64560;SDS011;50960;46.838;16.838;2023-11-21T06:41:00;20.52;;;18.38;;
64560;SDS011;50960;46.838;16.838;2023-11-21T06:43:29;21.13;;;18.77;;
64560;SDS011;50960;46.838;16.838;2023-11-21T06:45:59;21.08;;;18.90;;
64560;SDS011;50960;46.838;16.838;2023-11-21T06:48:25;21.02;;;18.85;;
64560;SDS011;50960;46.838;16.838;2023-11-21T06:50:51;32.30;;;25.15;;
64560;SDS011;50960;46.838;16.838;2023-11-21T06:53:18;20.15;;;17.67;;
64560;SDS011;50960;46.838;16.838;2023-11-21T06:55:45;22.48;;;17.83;;
64560;SDS011;50960;46.838;16.838;2023-11-21T06:58:14;21.27;;;18.05;;
64560;SDS011;50960;46.838;16.838;2023-11-21T07:00:40;19.73;;;17.63;;
64560;SDS011;50960;46.838;16.838;2023-11-21T07:03:11;19.95;;;17.70;;
64560;SDS011;50960;46.838;16.838;2023-11-21T07:05:37;20.20;;;18.10;;
64560;SDS011;50960;46.838;16.838;2023-11-21T07:08:03;22.30;;;18.50;;
64560;SDS011;50960;46.838;16.838;2023-11-21T07:10:30;21.17;;;18.83;;
64560;SDS011;50960;46.838;16.838;2023-11-21T07:12:56;21.27;;;18.15;;
64560;SDS011;50960;46.838;16.838;2023-11-21T07:15:23;20.05;;;17.98;;
64560;SDS011;50960;46.838;16.838;2023-11-21T07:17:51;19.98;;;17.88;;
64560;SDS011;50960;46.838;16.838;2023-11-21T07:20:19;20.30;;;17.88;;
64560;SDS011;50960;46.838;16.838;2023-11-21T07:22:47;20.15;;;17.67;;
64560;SDS011;50960;46.838;16.838;2023-11-21T07:25:13;20.90;;;18.80;;
64560;SDS011;50960;46.838;16.838;2023-11-21T07:27:39;21.67;;;18.90;;
64560;SDS011;50960;46.838;16.838;2023-11-21T07:30:06;23.60;;;19.00;;
64560;SDS011;50960;46.838;16.838;2023-11-21T07:32:34;22.02;;;18.90;;
64560;SDS011;50960;46.838;16.838;2023-11-21T07:35:01;23.00;;;20.15;;
64560;SDS011;50960;46.838;16.838;2023-11-21T07:37:27;24.15;;;20.40;;
64560;SDS011;50960;46.838;16.838;2023-11-21T07:39:56;24.45;;;21.17;;
64560;SDS011;50960;46.838;16.838;2023-11-21T07:42:23;24.08;;;21.58;;
64560;SDS011;50960;46.838;16.838;2023-11-21T07:44:52;24.88;;;21.30;;
64560;SDS011;50960;46.838;16.838;2023-11-21T07:47:18;24.38;;;21.85;;
64560;SDS011;50960;46.838;16.838;2023-11-21T07:49:44;27.50;;;22.98;;
64560;SDS011;50960;46.838;16.838;2023-11-21T07:52:12;27.08;;;23.13;;
64560;SDS011;50960;46.838;16.838;2023-11-21T07:54:41;29.80;;;23.23;;
64560;SDS011;50960;46.838;16.838;2023-11-21T07:57:08;27.25;;;22.05;;
64560;SDS011;50960;46.838;16.838;2023-11-21T07:59:34;23.63;;;20.85;;
64560;SDS011;50960;46.838;16.838;2023-11-21T08:02:00;28.20;;;24.10;;
64560;SDS011;50960;46.838;16.838;2023-11-21T08:04:27;25.13;;;22.42;;
64560;SDS011;50960;46.838;16.838;2023-11-21T08:06:53;25.83;;;22.98;;
64560;SDS011;50960;46.838;16.838;2023-11-21T08:09:19;26.13;;;22.73;;
64560;SDS011;50960;46.838;16.838;2023-11-21T08:11:49;26.77;;;23.88;;
64560;SDS011;50960;46.838;16.838;2023-11-21T08:14:17;29.60;;;24.10;;
64560;SDS011;50960;46.838;16.838;2023-11-21T08:16:43;27.98;;;22.80;;
64560;SDS011;50960;46.838;16.838;2023-11-21T08:19:10;28.25;;;23.23;;
64560;SDS011;50960;46.838;16.838;2023-11-21T08:21:36;28.73;;;25.13;;
64560;SDS011;50960;46.838;16.838;2023-11-21T08:24:06;28.10;;;24.48;;
64560;SDS011;50960;46.838;16.838;2023-11-21T08:26:36;33.63;;;26.33;;
64560;SDS011;50960;46.838;16.838;2023-11-21T08:29:03;32.45;;;27.85;;
64560;SDS011;50960;46.838;16.838;2023-11-21T08:31:32;35.03;;;27.02;;
64560;SDS011;50960;46.838;16.838;2023-11-21T08:33:58;31.63;;;26.95;;
64560;SDS011;50960;46.838;16.838;2023-11-21T08:36:28;33.38;;;26.35;;
64560;SDS011;50960;46.838;16.838;2023-11-21T08:38:54;34.13;;;26.33;;
64560;SDS011;50960;46.838;16.838;2023-11-21T08:41:20;32.60;;;25.60;;
64560;SDS011;50960;46.838;16.838;2023-11-21T08:43:50;37.28;;;28.15;;
64560;SDS011;50960;46.838;16.838;2023-11-21T08:46:16;36.58;;;30.17;;
64560;SDS011;50960;46.838;16.838;2023-11-21T08:48:43;42.95;;;30.85;;
64560;SDS011;50960;46.838;16.838;2023-11-21T08:51:10;37.50;;;28.40;;
64560;SDS011;50960;46.838;16.838;2023-11-21T08:53:37;30.25;;;24.83;;
64560;SDS011;50960;46.838;16.838;2023-11-21T08:56:04;27.55;;;23.60;;
64560;SDS011;50960;46.838;16.838;2023-11-21T08:58:31;29.42;;;24.40;;
64560;SDS011;50960;46.838;16.838;2023-11-21T09:00:58;30.27;;;23.95;;
64560;SDS011;50960;46.838;16.838;2023-11-21T09:03:24;28.70;;;25.17;;
64560;SDS011;50960;46.838;16.838;2023-11-21T09:05:51;30.08;;;25.23;;
64560;SDS011;50960;46.838;16.838;2023-11-21T09:08:17;27.63;;;24.15;;
64560;SDS011;50960;46.838;16.838;2023-11-21T09:10:43;27.90;;;22.58;;
64560;SDS011;50960;46.838;16.838;2023-11-21T09:13:12;26.50;;;22.38;;
64560;SDS011;50960;46.838;16.838;2023-11-21T09:15:39;27.77;;;22.50;;
64560;SDS011;50960;46.838;16.838;2023-11-21T09:18:05;27.70;;;22.42;;
64560;SDS011;50960;46.838;16.838;2023-11-21T09:20:32;28.83;;;22.55;;
64560;SDS011;50960;46.838;16.838;2023-11-21T09:22:58;24.33;;;21.13;;
64560;SDS011;50960;46.838;16.838;2023-11-21T09:25:24;24.13;;;19.52;;
64560;SDS011;50960;46.838;16.838;2023-11-21T09:27:51;24.63;;;20.58;;
64560;SDS011;50960;46.838;16.838;2023-11-21T09:30:17;25.58;;;21.10;;
64560;SDS011;50960;46.838;16.838;2023-11-21T09:32:43;25.33;;;20.98;;
64560;SDS011;50960;46.838;16.838;2023-11-21T09:35:11;24.20;;;20.52;;
64560;SDS011;50960;46.838;16.838;2023-11-21T09:37:39;23.30;;;20.20;;
64560;SDS011;50960;46.838;16.838;2023-11-21T09:40:06;24.77;;;20.70;;
64560;SDS011;50960;46.838;16.838;2023-11-21T09:42:39;25.70;;;20.65;;
64560;SDS011;50960;46.838;16.838;2023-11-21T09:45:12;25.65;;;20.70;;
64560;SDS011;50960;46.838;16.838;2023-11-21T09:47:45;21.58;;;19.25;;
64560;SDS011;50960;46.838;16.838;2023-11-21T09:50:14;64.05;;;24.48;;
64560;SDS011;50960;46.838;16.838;2023-11-21T09:55:28;141.65;;;27.58;;
64560;SDS011;50960;46.838;16.838;2023-11-21T09:57:56;40.47;;;18.48;;
64560;SDS011;50960;46.838;16.838;2023-11-21T10:00:22;27.88;;;17.83;;
64560;SDS011;50960;46.838;16.838;2023-11-21T10:02:49;56.00;;;19.35;;
64560;SDS011;50960;46.838;16.838;2023-11-21T10:05:18;24.67;;;15.85;;
64560;SDS011;50960;46.838;16.838;2023-11-21T10:07:48;18.45;;;14.70;;
64560;SDS011;50960;46.838;16.838;2023-11-21T10:10:18;21.17;;;14.07;;
64560;SDS011;50960;46.838;16.838;2023-11-21T10:13:06;17.05;;;15.00;;
64560;SDS011;50960;46.838;16.838;2023-11-21T10:15:33;17.38;;;14.18;;
64560;SDS011;50960;46.838;16.838;2023-11-21T10:18:03;19.17;;;14.27;;
64560;SDS011;50960;46.838;16.838;2023-11-21T10:20:33;115.05;;;23.48;;
64560;SDS011;50960;46.838;16.838;2023-11-21T10:23:00;33.03;;;17.73;;
64560;SDS011;50960;46.838;16.838;2023-11-21T10:25:30;18.98;;;16.63;;
64560;SDS011;50960;46.838;16.838;2023-11-21T10:27:57;45.58;;;18.38;;
64560;SDS011;50960;46.838;16.838;2023-11-21T10:30:28;19.70;;;17.15;;
64560;SDS011;50960;46.838;16.838;2023-11-21T10:32:59;18.65;;;16.15;;
64560;SDS011;50960;46.838;16.838;2023-11-21T10:35:46;18.98;;;16.13;;
64560;SDS011;50960;46.838;16.838;2023-11-21T10:38:19;18.35;;;16.40;;
64560;SDS011;50960;46.838;16.838;2023-11-21T10:40:48;20.27;;;16.27;;
64560;SDS011;50960;46.838;16.838;2023-11-21T10:43:15;35.60;;;16.05;;
64560;SDS011;50960;46.838;16.838;2023-11-21T10:45:42;17.23;;;15.43;;
64560;SDS011;50960;46.838;16.838;2023-11-21T10:48:14;18.30;;;14.27;;
64560;SDS011;50960;46.838;16.838;2023-11-21T10:50:41;13.95;;;10.73;;
64560;SDS011;50960;46.838;16.838;2023-11-21T10:53:09;15.05;;;11.77;;
64560;SDS011;50960;46.838;16.838;2023-11-21T10:55:37;14.73;;;12.30;;
64560;SDS011;50960;46.838;16.838;2023-11-21T10:58:03;15.15;;;12.95;;
64560;SDS011;50960;46.838;16.838;2023-11-21T11:00:32;15.15;;;13.25;;
64560;SDS011;50960;46.838;16.838;2023-11-21T11:02:59;16.30;;;13.13;;
64560;SDS011;50960;46.838;16.838;2023-11-21T11:05:27;14.73;;;10.55;;
64560;SDS011;50960;46.838;16.838;2023-11-21T11:08:05;14.57;;;10.45;;
64560;SDS011;50960;46.838;16.838;2023-11-21T11:10:33;11.05;;;9.85;;
64560;SDS011;50960;46.838;16.838;2023-11-21T11:13:00;9.05;;;7.60;;
64560;SDS011;50960;46.838;16.838;2023-11-21T11:15:27;8.43;;;7.15;;
64560;SDS011;50960;46.838;16.838;2023-11-21T11:17:54;10.32;;;7.28;;
64560;SDS011;50960;46.838;16.838;2023-11-21T11:20:24;8.82;;;7.43;;
64560;SDS011;50960;46.838;16.838;2023-11-21T11:34:21;7.03;;;5.85;;
64560;SDS011;50960;46.838;16.838;2023-11-21T11:36:58;9.30;;;6.72;;
64560;SDS011;50960;46.838;16.838;2023-11-21T11:42:01;8.25;;;6.85;;
64560;SDS011;50960;46.838;16.838;2023-11-21T11:47:22;8.68;;;7.30;;
64560;SDS011;50960;46.838;16.838;2023-11-21T11:55:21;10.98;;;8.13;;
64560;SDS011;50960;46.838;16.838;2023-11-21T11:57:52;8.10;;;7.30;;
64560;SDS011;50960;46.838;16.838;2023-11-21T12:02:54;8.45;;;6.80;;
64560;SDS011;50960;46.838;16.838;2023-11-21T12:05:27;8.02;;;6.88;;
64560;SDS011;50960;46.838;16.838;2023-11-21T12:07:54;8.10;;;7.10;;
64560;SDS011;50960;46.838;16.838;2023-11-21T12:12:52;7.38;;;6.68;;
64560;SDS011;50960;46.838;16.838;2023-11-21T12:15:21;8.40;;;6.70;;
64560;SDS011;50960;46.838;16.838;2023-11-21T12:17:51;6.85;;;6.15;;
64560;SDS011;50960;46.838;16.838;2023-11-21T12:20:18;7.35;;;6.28;;
64560;SDS011;50960;46.838;16.838;2023-11-21T12:22:49;7.35;;;6.28;;
64560;SDS011;50960;46.838;16.838;2023-11-21T12:25:18;7.57;;;6.45;;
64560;SDS011;50960;46.838;16.838;2023-11-21T12:27:49;7.47;;;6.20;;
64560;SDS011;50960;46.838;16.838;2023-11-21T12:30:17;7.47;;;6.45;;
64560;SDS011;50960;46.838;16.838;2023-11-21T12:32:48;6.63;;;6.03;;
64560;SDS011;50960;46.838;16.838;2023-11-21T12:35:20;7.15;;;6.32;;
64560;SDS011;50960;46.838;16.838;2023-11-21T12:37:47;6.70;;;6.10;;
64560;SDS011;50960;46.838;16.838;2023-11-21T12:40:15;7.88;;;6.28;;
64560;SDS011;50960;46.838;16.838;2023-11-21T12:42:43;7.55;;;6.78;;
64560;SDS011;50960;46.838;16.838;2023-11-21T12:47:43;7.80;;;6.03;;
64560;SDS011;50960;46.838;16.838;2023-11-21T12:50:10;8.07;;;6.00;;
64560;SDS011;50960;46.838;16.838;2023-11-21T12:52:43;7.50;;;6.40;;
64560;SDS011;50960;46.838;16.838;2023-11-21T12:55:16;7.18;;;5.90;;
64560;SDS011;50960;46.838;16.838;2023-11-21T12:57:44;6.63;;;6.03;;
64560;SDS011;50960;46.838;16.838;2023-11-21T13:00:11;8.05;;;5.97;;
64560;SDS011;50960;46.838;16.838;2023-11-21T13:02:43;6.43;;;5.82;;
64560;SDS011;50960;46.838;16.838;2023-11-21T13:05:09;6.63;;;5.93;;
64560;SDS011;50960;46.838;16.838;2023-11-21T13:07:47;7.05;;;6.05;;
64560;SDS011;50960;46.838;16.838;2023-11-21T13:10:16;6.47;;;5.80;;
64560;SDS011;50960;46.838;16.838;2023-11-21T13:12:45;7.50;;;5.47;;
64560;SDS011;50960;46.838;16.838;2023-11-21T13:15:17;6.65;;;6.00;;
64560;SDS011;50960;46.838;16.838;2023-11-21T13:17:44;6.25;;;5.65;;
64560;SDS011;50960;46.838;16.838;2023-11-21T13:20:11;6.00;;;5.40;;
64560;SDS011;50960;46.838;16.838;2023-11-21T13:22:53;6.05;;;5.43;;
64560;SDS011;50960;46.838;16.838;2023-11-21T13:25:26;6.10;;;5.50;;
64560;SDS011;50960;46.838;16.838;2023-11-21T13:27:59;6.07;;;5.25;;
64560;SDS011;50960;46.838;16.838;2023-11-21T13:30:29;7.13;;;5.68;;
64560;SDS011;50960;46.838;16.838;2023-11-21T13:33:03;6.25;;;5.65;;
64560;SDS011;50960;46.838;16.838;2023-11-21T13:35:34;6.55;;;5.25;;
64560;SDS011;50960;46.838;16.838;2023-11-21T13:38:13;7.60;;;6.72;;
64560;SDS011;50960;46.838;16.838;2023-11-21T13:40:46;12.00;;;10.60;;
64560;SDS011;50960;46.838;16.838;2023-11-21T13:43:15;7.75;;;6.10;;
64560;SDS011;50960;46.838;16.838;2023-11-21T13:45:44;9.63;;;7.95;;
64560;SDS011;50960;46.838;16.838;2023-11-21T13:48:11;6.15;;;5.55;;
64560;SDS011;50960;46.838;16.838;2023-11-21T13:50:45;10.25;;;6.10;;
64560;SDS011;50960;46.838;16.838;2023-11-21T13:53:21;7.72;;;5.45;;
64560;SDS011;50960;46.838;16.838;2023-11-21T13:55:50;6.10;;;5.50;;
64560;SDS011;50960;46.838;16.838;2023-11-21T13:58:20;7.70;;;5.78;;
64560;SDS011;50960;46.838;16.838;2023-11-21T14:00:49;6.60;;;5.57;;
64560;SDS011;50960;46.838;16.838;2023-11-21T14:03:24;6.93;;;5.10;;
64560;SDS011;50960;46.838;16.838;2023-11-21T14:06:05;8.82;;;7.80;;
64560;SDS011;50960;46.838;16.838;2023-11-21T14:08:40;6.50;;;5.90;;
64560;SDS011;50960;46.838;16.838;2023-11-21T14:11:08;8.85;;;6.07;;
64560;SDS011;50960;46.838;16.838;2023-11-21T14:13:36;9.00;;;6.57;;
64560;SDS011;50960;46.838;16.838;2023-11-21T14:16:03;8.73;;;6.82;;
64560;SDS011;50960;46.838;16.838;2023-11-21T14:18:32;7.85;;;6.72;;
64560;SDS011;50960;46.838;16.838;2023-11-21T14:21:16;7.93;;;5.63;;
64560;SDS011;50960;46.838;16.838;2023-11-21T14:23:42;8.23;;;7.20;;
64560;SDS011;50960;46.838;16.838;2023-11-21T14:26:11;8.23;;;6.00;;
64560;SDS011;50960;46.838;16.838;2023-11-21T14:28:41;7.95;;;5.65;;
64560;SDS011;50960;46.838;16.838;2023-11-21T14:31:08;6.93;;;5.80;;
64560;SDS011;50960;46.838;16.838;2023-11-21T14:36:07;6.70;;;6.10;;
64560;SDS011;50960;46.838;16.838;2023-11-21T14:38:36;8.50;;;6.10;;
64560;SDS011;50960;46.838;16.838;2023-11-21T14:41:05;10.00;;;7.88;;
64560;SDS011;50960;46.838;16.838;2023-11-21T14:43:36;8.90;;;7.55;;
64560;SDS011;50960;46.838;16.838;2023-11-21T14:46:04;9.07;;;7.82;;
64560;SDS011;50960;46.838;16.838;2023-11-21T14:48:35;9.05;;;8.15;;
64560;SDS011;50960;46.838;16.838;2023-11-21T14:51:10;8.65;;;7.38;;
64560;SDS011;50960;46.838;16.838;2023-11-21T14:53:58;8.02;;;7.03;;
64560;SDS011;50960;46.838;16.838;2023-11-21T14:56:32;9.25;;;7.68;;
64560;SDS011;50960;46.838;16.838;2023-11-21T14:59:01;8.93;;;7.82;;
64560;SDS011;50960;46.838;16.838;2023-11-21T15:01:32;8.57;;;7.78;;
64560;SDS011;50960;46.838;16.838;2023-11-21T15:04:17;8.90;;;8.00;;
64560;SDS011;50960;46.838;16.838;2023-11-21T15:07:04;9.88;;;7.97;;
64560;SDS011;50960;46.838;16.838;2023-11-21T15:09:44;10.75;;;8.00;;
64560;SDS011;50960;46.838;16.838;2023-11-21T15:12:11;12.50;;;8.77;;
64560;SDS011;50960;46.838;16.838;2023-11-21T15:14:45;10.00;;;8.70;;
64560;SDS011;50960;46.838;16.838;2023-11-21T15:17:14;10.23;;;8.45;;
64560;SDS011;50960;46.838;16.838;2023-11-21T15:19:49;9.65;;;8.65;;
64560;SDS011;50960;46.838;16.838;2023-11-21T15:22:16;11.38;;;9.95;;
64560;SDS011;50960;46.838;16.838;2023-11-21T15:24:42;13.55;;;10.23;;
64560;SDS011;50960;46.838;16.838;2023-11-21T15:27:12;12.20;;;9.88;;
64560;SDS011;50960;46.838;16.838;2023-11-21T15:29:39;11.57;;;9.40;;
64560;SDS011;50960;46.838;16.838;2023-11-21T15:32:06;15.98;;;14.23;;
64560;SDS011;50960;46.838;16.838;2023-11-21T15:34:33;14.80;;;11.07;;
64560;SDS011;50960;46.838;16.838;2023-11-21T15:37:00;14.30;;;11.07;;
64560;SDS011;50960;46.838;16.838;2023-11-21T15:39:28;13.00;;;10.65;;
64560;SDS011;50960;46.838;16.838;2023-11-21T15:41:56;13.15;;;10.80;;
64560;SDS011;50960;46.838;16.838;2023-11-21T15:44:23;11.05;;;9.73;;
64560;SDS011;50960;46.838;16.838;2023-11-21T15:46:52;13.10;;;10.57;;
64560;SDS011;50960;46.838;16.838;2023-11-21T15:49:19;12.25;;;9.70;;
64560;SDS011;50960;46.838;16.838;2023-11-21T15:51:48;12.40;;;10.43;;
64560;SDS011;50960;46.838;16.838;2023-11-21T15:54:24;10.68;;;9.23;;
64560;SDS011;50960;46.838;16.838;2023-11-21T15:56:52;11.77;;;9.25;;
64560;SDS011;50960;46.838;16.838;2023-11-21T15:59:23;11.20;;;9.25;;